Accueil
METAR-TAF:

METAR-TAF

Aéroports :

Aéroport de Valence

Valence, Espagne

latitude: 39-30N, longitude: 000-28W, altitude: 69 m

Observation

Le bulletin a été fait il y a 30 minutes, à 02:00 UTC
Vent 4 kt de ouest
Température 10°C
Humidité 87%
Pression 1011 hPa
Visibilité 10 km ou plus
Quelques nuages à une hauteur de 3000 ft

METAR: LEVC 240200Z 28004KT 9999 FEW030 10/08 Q1011 NOSIG

Heure: 04:30 (02:30 UTC)

Prévision

Le bulletin a été fait il y a 3 heures et 30 minutes, à 23:00 UTC
Prévision valable du 24 à 00 UTC au 24 à 24 UTC
Vent 6 kt de ouest
Visibilité 10 km ou plus
Quelques nuages à une hauteur de 3500 ft
Temporairement
du 24 à 12 UTC au 24 à 18 UTC
Vent 7 kt de nord

TAF: LEVC 232300Z 2400/2424 28006KT 9999 FEW035 TX23/2412Z TN11/2406Z TEMPO 2412/2418 36007KT

Observations et prévisions météorologiques de plus de 4000 aéroports (messages METAR et TAF).

Les stations disponibles sont représentées par des disques jaunes et rouges sur la carte.

Passer la souris dessus pour voir le nom de la station.

Cliquer dessus pour voir les observations et prévisions météorologiques.

Pour changer de carte: cliquez sur les boutons verts avec une croix noire pour zoomer, sur le bouton vert avec un tiret pour effectuer un zoom arrière, ou sur les flèches vertes pour les cartes adjacentes.


METAR-TAF: